Time;durP1;ratioP1;P1;durP2;ratioP2;P2;SDS_P1;SDS_P2;PMS_P1;PMS_P2;Temp;Humidity;BMP_temperature;BMP_pressure;BME280_temperature;BME280_humidity;BME280_pressure;Samples;Min_cycle;Max_cycle;Signal;HPM_P1;HPM_P2
2021/12/14 00:02:15;;;;;;;;;;;9.30;99.90;;;;;;5054198;28;20321;-52
2021/12/14 00:04:40;;;;;;;;;;;9.30;99.90;;;;;;5054475;28;19957;-55
2021/12/14 00:07:10;;;;;;;;;;;9.20;99.90;;;;;;5056694;28;19904;-55
2021/12/14 00:09:36;;;;;;;;;;;9.20;99.90;;;;;;5055148;28;19908;-57
2021/12/14 00:17:14;;;;;;;;;;;9.20;99.90;;;;;;5068363;28;19935;-54
2021/12/14 00:19:39;;;;;;;;;;;9.20;99.90;;;;;;5051832;28;19904;-52
2021/12/14 00:22:19;;;;;;;;;;;9.20;99.90;;;;;;5051688;28;19946;-54
2021/12/14 00:24:45;;;;;;;;;;;9.20;99.90;;;;;;5067679;28;19914;-55
2021/12/14 00:27:11;;;;;;;;;;;9.20;99.90;;;;;;5052890;28;20002;-56
2021/12/14 00:29:43;;;;;;;;;;;9.20;99.90;;;;;;5051272;28;19934;-55
2021/12/14 00:32:13;;;;;;;;;;;9.20;99.90;;;;;;5054221;28;19908;-55
2021/12/14 00:34:43;;;;;;;;;;;9.20;99.90;;;;;;5055971;28;19904;-56
2021/12/14 00:37:11;;;;;;;;;;;9.20;99.90;;;;;;5057560;28;19981;-54
2021/12/14 00:39:37;;;;;;;;;;;9.20;99.90;;;;;;5055419;28;19984;-54
2021/12/14 00:42:03;;;;;;;;;;;9.20;99.90;;;;;;5054462;28;20284;-51
2021/12/14 00:44:29;;;;;;;;;;;9.20;99.90;;;;;;5054293;28;19904;-56
2021/12/14 00:46:55;;;;;;;;;;;9.20;99.90;;;;;;5072138;28;19920;-53
2021/12/14 00:49:20;;;;;;;;;;;9.30;99.90;;;;;;5054784;28;19913;-55
2021/12/14 00:51:46;;;;;;;;;;;9.20;99.90;;;;;;5055077;28;19959;-54
2021/12/14 00:54:13;;;;;;;;;;;9.20;99.90;;;;;;5054730;28;19904;-53
2021/12/14 00:56:39;;;;;;;;;;;9.20;99.90;;;;;;5071900;28;19932;-54
2021/12/14 00:59:05;;;;;;;;;;;9.30;99.90;;;;;;5056028;28;19912;-54
2021/12/14 01:01:34;;;;;;;;;;;9.30;99.90;;;;;;5056981;28;19904;-53
2021/12/14 01:04:01;;;;;;;;;;;9.20;99.90;;;;;;5074851;28;19926;-53
2021/12/14 01:06:30;;;;;;;;;;;9.20;99.90;;;;;;5056983;28;20260;-54
2021/12/14 01:08:56;;;;;;;;;;;9.20;99.90;;;;;;5057590;28;19909;-54
2021/12/14 01:11:32;;;;;;;;;;;9.20;99.90;;;;;;5057365;28;19905;-56
2021/12/14 01:14:04;;;;;;;;;;;9.20;99.90;;;;;;5073119;28;19912;-54
2021/12/14 01:16:50;;;;;;;;;;;9.20;99.90;;;;;;5054188;28;19982;-52
2021/12/14 01:19:20;;;;;;;;;;;9.30;99.90;;;;;;5072617;28;20165;-56
2021/12/14 01:27:11;;;;;;;;;;;9.30;99.90;;;;;;5077432;28;20315;-55
2021/12/14 01:29:37;;;;;;;;;;;9.20;99.90;;;;;;5060755;28;19908;-57
2021/12/14 01:32:03;;;;;;;;;;;9.20;99.90;;;;;;5061367;28;19994;-57
2021/12/14 01:34:32;;;;;;;;;;;9.20;99.90;;;;;;5079821;28;20005;-55
2021/12/14 01:37:01;;;;;;;;;;;9.30;99.90;;;;;;5080330;28;20031;-53
2021/12/14 01:42:02;;;;;;;;;;;9.20;99.90;;;;;;5077329;28;19929;-50
2021/12/14 01:44:29;;;;;;;;;;;9.20;99.90;;;;;;5058662;28;20299;-53
2021/12/14 01:46:58;;;;;;;;;;;9.20;99.90;;;;;;5055853;28;20011;-56
2021/12/14 01:49:26;;;;;;;;;;;9.20;99.90;;;;;;5056236;28;19913;-54
2021/12/14 01:51:54;;;;;;;;;;;9.20;99.90;;;;;;5058199;28;19905;-56
2021/12/14 01:54:23;;;;;;;;;;;9.20;99.90;;;;;;5056193;28;19904;-57
2021/12/14 01:56:48;;;;;;;;;;;9.20;99.90;;;;;;5057023;28;19915;-56
2021/12/14 01:59:16;;;;;;;;;;;9.20;99.90;;;;;;5056872;28;20010;-55
2021/12/14 02:01:54;;;;;;;;;;;9.20;99.90;;;;;;5056383;28;19905;-53
2021/12/14 02:04:21;;;;;;;;;;;9.20;99.90;;;;;;5056613;28;19912;-54
2021/12/14 02:07:02;;;;;;;;;;;9.20;99.90;;;;;;5056811;28;19913;-54
2021/12/14 02:09:29;;;;;;;;;;;9.20;99.90;;;;;;5055742;28;20225;-53
2021/12/14 02:11:56;;;;;;;;;;;9.10;99.90;;;;;;5056674;28;19947;-55
2021/12/14 02:14:22;;;;;;;;;;;9.20;99.90;;;;;;5057629;28;20161;-56
2021/12/14 02:16:49;;;;;;;;;;;9.10;99.90;;;;;;5058708;28;19904;-57
2021/12/14 02:19:15;;;;;;;;;;;9.10;99.90;;;;;;5058121;28;19912;-57
2021/12/14 02:21:42;;;;;;;;;;;9.10;99.90;;;;;;5056773;28;19912;-54
2021/12/14 02:24:08;;;;;;;;;;;9.20;99.90;;;;;;5057659;28;20064;-52
2021/12/14 02:26:35;;;;;;;;;;;9.20;99.90;;;;;;5057401;28;20249;-55
2021/12/14 02:29:04;;;;;;;;;;;9.10;99.90;;;;;;5056625;28;20189;-55
2021/12/14 02:31:30;;;;;;;;;;;9.10;99.90;;;;;;5056739;28;20180;-55
2021/12/14 02:33:56;;;;;;;;;;;9.20;99.90;;;;;;5054610;28;20003;-52
2021/12/14 02:36:24;;;;;;;;;;;9.10;99.90;;;;;;5055604;28;20079;-54
2021/12/14 02:38:55;;;;;;;;;;;9.10;99.90;;;;;;5054914;28;20003;-55
2021/12/14 02:41:21;;;;;;;;;;;9.10;99.90;;;;;;5056267;28;19916;-52
2021/12/14 02:43:51;;;;;;;;;;;9.10;99.90;;;;;;5055234;28;19905;-53
2021/12/14 02:46:17;;;;;;;;;;;9.10;99.90;;;;;;5056904;28;19916;-51
2021/12/14 02:48:45;;;;;;;;;;;9.00;99.90;;;;;;5056962;28;20174;-52
2021/12/14 02:51:19;;;;;;;;;;;9.10;99.90;;;;;;5057912;28;19913;-57
2021/12/14 02:53:46;;;;;;;;;;;9.10;99.90;;;;;;5055249;28;19904;-53
2021/12/14 02:56:18;;;;;;;;;;;9.00;99.90;;;;;;5055407;28;19962;-51
2021/12/14 02:58:44;;;;;;;;;;;9.00;99.90;;;;;;5054923;28;19927;-51
2021/12/14 03:01:11;;;;;;;;;;;9.00;99.90;;;;;;5054354;28;19911;-56
2021/12/14 03:03:36;;;;;;;;;;;9.00;99.90;;;;;;5056511;28;19904;-54
2021/12/14 03:06:05;;;;;;;;;;;9.00;99.90;;;;;;5057648;28;19913;-54
2021/12/14 03:08:33;;;;;;;;;;;9.00;99.90;;;;;;5055209;28;19984;-52
2021/12/14 03:11:10;;;;;;;;;;;9.00;99.90;;;;;;5055540;28;19904;-54
2021/12/14 03:13:39;;;;;;;;;;;9.00;99.90;;;;;;5055378;28;20166;-54
2021/12/14 03:16:06;;;;;;;;;;;9.00;99.90;;;;;;5056420;28;19948;-56
2021/12/14 03:18:33;;;;;;;;;;;9.10;99.90;;;;;;5056315;28;19919;-57
2021/12/14 03:20:59;;;;;;;;;;;9.00;99.90;;;;;;5056303;28;19909;-56
2021/12/14 03:23:29;;;;;;;;;;;9.10;99.90;;;;;;5055179;28;19966;-56
2021/12/14 03:25:55;;;;;;;;;;;9.00;99.90;;;;;;5055662;28;19938;-54
2021/12/14 03:28:22;;;;;;;;;;;9.00;99.90;;;;;;5055422;28;19908;-51
2021/12/14 03:30:47;;;;;;;;;;;9.00;99.90;;;;;;5056508;28;20366;-55
2021/12/14 03:33:18;;;;;;;;;;;9.10;99.90;;;;;;5057139;28;19909;-53
2021/12/14 03:35:47;;;;;;;;;;;9.10;99.90;;;;;;5056943;28;19923;-55
2021/12/14 03:38:15;;;;;;;;;;;9.10;99.90;;;;;;5055100;28;19916;-54
2021/12/14 03:40:41;;;;;;;;;;;9.10;99.90;;;;;;5055217;28;20154;-56
2021/12/14 03:43:07;;;;;;;;;;;9.00;99.90;;;;;;5055292;28;19905;-55
2021/12/14 03:45:33;;;;;;;;;;;9.00;99.90;;;;;;5054631;28;20239;-54
2021/12/14 03:48:01;;;;;;;;;;;9.00;99.90;;;;;;5092814;28;19916;-52
2021/12/14 03:50:29;;;;;;;;;;;9.00;99.90;;;;;;5079973;28;19908;-57
2021/12/14 03:52:56;;;;;;;;;;;9.00;99.90;;;;;;5080978;28;20002;-56
2021/12/14 03:55:33;;;;;;;;;;;9.00;99.90;;;;;;5080241;28;19926;-57
2021/12/14 03:57:59;;;;;;;;;;;9.00;99.90;;;;;;5063379;28;19908;-57
2021/12/14 04:00:27;;;;;;;;;;;9.00;99.90;;;;;;5080009;28;19908;-54
2021/12/14 04:02:57;;;;;;;;;;;9.00;99.90;;;;;;5063167;28;20165;-54
2021/12/14 04:05:25;;;;;;;;;;;9.00;99.90;;;;;;5077715;28;19967;-54
2021/12/14 04:07:52;;;;;;;;;;;9.00;99.90;;;;;;5039217;28;19905;-57
2021/12/14 04:10:21;;;;;;;;;;;9.00;99.90;;;;;;5038853;28;19905;-56
2021/12/14 04:12:47;;;;;;;;;;;9.00;99.90;;;;;;5022273;28;19919;-56
2021/12/14 04:15:13;;;;;;;;;;;9.00;99.90;;;;;;5056667;28;20002;-58
2021/12/14 04:17:39;;;;;;;;;;;9.00;99.90;;;;;;5056384;28;19905;-55
2021/12/14 04:20:25;;;;;;;;;;;9.00;99.90;;;;;;5028473;28;20150;-54
2021/12/14 04:22:52;;;;;;;;;;;9.10;99.90;;;;;;5018459;28;20289;-54
2021/12/14 04:25:20;;;;;;;;;;;9.00;99.90;;;;;;5018855;28;19959;-56
2021/12/14 04:27:47;;;;;;;;;;;9.00;99.90;;;;;;5033755;28;19951;-57
2021/12/14 04:30:15;;;;;;;;;;;9.00;99.90;;;;;;5019488;28;19944;-57
2021/12/14 04:32:44;;;;;;;;;;;9.00;99.90;;;;;;5002341;28;19951;-56
2021/12/14 04:35:10;;;;;;;;;;;9.00;99.90;;;;;;5017719;28;20154;-52
2021/12/14 04:37:43;;;;;;;;;;;9.00;99.90;;;;;;5017530;28;19999;-53
2021/12/14 04:40:35;;;;;;;;;;;9.00;99.90;;;;;;5018633;28;20264;-51
2021/12/14 04:54:19;;;;;;;;;;;8.90;99.90;;;;;;5033923;28;19969;-55
2021/12/14 04:56:45;;;;;;;;;;;8.90;99.90;;;;;;5015785;28;19905;-56
2021/12/14 04:59:13;;;;;;;;;;;8.90;99.90;;;;;;5019473;28;19928;-55
2021/12/14 05:01:41;;;;;;;;;;;8.90;99.90;;;;;;5020216;28;20205;-56
2021/12/14 05:04:09;;;;;;;;;;;8.90;99.90;;;;;;5020213;28;19916;-56
2021/12/14 05:06:48;;;;;;;;;;;8.90;99.90;;;;;;5019176;28;20252;-53
2021/12/14 05:09:21;;;;;;;;;;;8.90;99.90;;;;;;5018301;28;19917;-53
2021/12/14 05:11:52;;;;;;;;;;;8.90;99.90;;;;;;5017811;28;19916;-55
2021/12/14 05:14:18;;;;;;;;;;;8.90;99.90;;;;;;5018307;28;19955;-54
2021/12/14 05:16:43;;;;;;;;;;;8.90;99.90;;;;;;5018680;28;19983;-52
2021/12/14 05:19:10;;;;;;;;;;;8.90;99.90;;;;;;5017542;28;19905;-55
2021/12/14 05:21:46;;;;;;;;;;;9.00;99.90;;;;;;5017797;28;19916;-51
2021/12/14 05:24:14;;;;;;;;;;;8.90;99.90;;;;;;5016331;28;19905;-52
2021/12/14 05:26:39;;;;;;;;;;;9.00;99.90;;;;;;5016719;28;19966;-53
2021/12/14 05:29:07;;;;;;;;;;;9.00;99.90;;;;;;5016155;28;19909;-53
2021/12/14 05:31:33;;;;;;;;;;;9.00;99.90;;;;;;5015592;28;19989;-56
2021/12/14 05:33:58;;;;;;;;;;;9.00;99.90;;;;;;5015408;28;19986;-55
2021/12/14 05:36:24;;;;;;;;;;;8.90;99.90;;;;;;5016822;28;20170;-54
2021/12/14 05:39:00;;;;;;;;;;;8.90;99.90;;;;;;5017206;28;19905;-56
2021/12/14 05:44:20;;;;;;;;;;;8.90;99.90;;;;;;5034033;28;20011;-54
2021/12/14 05:46:50;;;;;;;;;;;8.90;99.90;;;;;;5033581;28;19974;-53
2021/12/14 05:49:17;;;;;;;;;;;8.90;99.90;;;;;;5016408;28;19909;-55
2021/12/14 05:51:44;;;;;;;;;;;8.90;99.90;;;;;;5026008;28;19908;-56
2021/12/14 05:54:16;;;;;;;;;;;8.90;99.90;;;;;;5009844;28;20528;-51
2021/12/14 05:56:43;;;;;;;;;;;8.90;99.90;;;;;;5001028;28;19932;-56
2021/12/14 05:59:09;;;;;;;;;;;8.90;99.90;;;;;;5017727;28;19916;-56
2021/12/14 06:01:35;;;;;;;;;;;8.90;99.90;;;;;;5017082;28;20456;-55
2021/12/14 06:04:03;;;;;;;;;;;9.00;99.90;;;;;;5017278;28;19969;-56
2021/12/14 06:06:35;;;;;;;;;;;9.00;99.90;;;;;;5013987;28;19924;-55
2021/12/14 06:09:08;;;;;;;;;;;9.00;99.90;;;;;;5011714;28;19917;-55
2021/12/14 06:11:34;;;;;;;;;;;9.00;99.90;;;;;;5013376;28;19940;-55
2021/12/14 06:13:59;;;;;;;;;;;9.00;99.90;;;;;;5011710;28;19913;-55
2021/12/14 06:16:32;;;;;;;;;;;9.00;99.90;;;;;;5012014;28;19913;-56
2021/12/14 06:19:12;;;;;;;;;;;9.00;99.90;;;;;;5012694;28;19906;-52
2021/12/14 06:21:37;;;;;;;;;;;9.00;99.90;;;;;;5011246;28;19917;-56
2021/12/14 06:24:04;;;;;;;;;;;9.00;99.90;;;;;;4995610;28;20135;-52
2021/12/14 06:26:33;;;;;;;;;;;9.00;99.90;;;;;;5010165;28;19925;-55
2021/12/14 06:29:10;;;;;;;;;;;9.00;99.90;;;;;;5010237;28;19929;-54
2021/12/14 06:31:36;;;;;;;;;;;9.00;99.90;;;;;;5025013;28;20313;-56
2021/12/14 06:34:13;;;;;;;;;;;8.90;99.90;;;;;;5007045;28;19940;-55
2021/12/14 06:37:14;;;;;;;;;;;8.90;99.90;;;;;;5005282;28;19996;-53
2021/12/14 06:40:01;;;;;;;;;;;8.80;99.90;;;;;;5003471;28;19906;-54
2021/12/14 06:42:26;;;;;;;;;;;8.70;99.90;;;;;;5022354;28;19915;-56
2021/12/14 06:45:02;;;;;;;;;;;8.70;99.90;;;;;;5007644;28;20001;-51
2021/12/14 06:47:29;;;;;;;;;;;8.70;99.90;;;;;;5003965;28;19905;-53
2021/12/14 06:49:55;;;;;;;;;;;8.70;99.90;;;;;;5004399;28;19921;-54
2021/12/14 06:52:20;;;;;;;;;;;8.70;99.90;;;;;;5006344;28;19905;-55
2021/12/14 06:54:46;;;;;;;;;;;8.60;99.90;;;;;;5005550;28;20179;-54
2021/12/14 06:57:11;;;;;;;;;;;8.60;99.90;;;;;;5021775;28;19906;-54
2021/12/14 06:59:37;;;;;;;;;;;8.60;99.90;;;;;;5008548;28;20213;-55
2021/12/14 07:02:05;;;;;;;;;;;8.60;99.90;;;;;;5009992;28;19914;-53
2021/12/14 07:04:32;;;;;;;;;;;8.60;99.90;;;;;;5024896;28;19956;-57
2021/12/14 07:06:57;;;;;;;;;;;8.60;99.90;;;;;;5010109;28;19970;-57
2021/12/14 07:09:26;;;;;;;;;;;8.60;99.90;;;;;;5010680;28;19913;-54
2021/12/14 07:11:57;;;;;;;;;;;8.60;99.90;;;;;;5008156;28;20072;-55
2021/12/14 07:14:28;;;;;;;;;;;8.60;99.90;;;;;;5025769;28;20011;-55
2021/12/14 07:16:55;;;;;;;;;;;8.60;99.90;;;;;;5004719;28;20055;-57
2021/12/14 07:19:39;;;;;;;;;;;8.70;99.90;;;;;;5005036;28;20308;-54
2021/12/14 07:22:05;;;;;;;;;;;8.70;99.90;;;;;;5018173;28;20040;-57
2021/12/14 07:24:33;;;;;;;;;;;8.70;99.90;;;;;;5000609;28;20146;-56
2021/12/14 07:27:10;;;;;;;;;;;8.70;99.90;;;;;;5004741;28;20345;-55
2021/12/14 07:29:36;;;;;;;;;;;8.60;99.90;;;;;;5003826;28;19921;-57
2021/12/14 07:32:01;;;;;;;;;;;8.70;99.90;;;;;;5023550;28;19905;-55
2021/12/14 07:34:27;;;;;;;;;;;8.70;99.90;;;;;;5006769;28;19948;-52
2021/12/14 07:36:53;;;;;;;;;;;8.70;99.90;;;;;;5026062;28;20389;-56
2021/12/14 07:39:21;;;;;;;;;;;8.60;99.90;;;;;;5031060;28;19905;-56
2021/12/14 07:41:51;;;;;;;;;;;8.60;99.90;;;;;;5015605;28;19905;-55
2021/12/14 07:44:18;;;;;;;;;;;8.60;99.90;;;;;;5016014;28;19966;-57
2021/12/14 07:46:45;;;;;;;;;;;8.60;99.90;;;;;;5031825;28;19920;-54
2021/12/14 07:49:26;;;;;;;;;;;8.60;99.90;;;;;;5010259;28;19951;-55
2021/12/14 07:52:07;;;;;;;;;;;8.60;99.90;;;;;;5009714;28;19905;-52
2021/12/14 07:54:38;;;;;;;;;;;8.60;99.90;;;;;;5008992;28;19905;-53
2021/12/14 07:57:08;;;;;;;;;;;8.60;99.90;;;;;;5024289;28;19905;-54
2021/12/14 07:59:42;;;;;;;;;;;8.50;99.90;;;;;;5024866;28;19917;-53
2021/12/14 08:02:22;;;;;;;;;;;8.50;99.90;;;;;;5008301;28;19974;-56
2021/12/14 08:04:53;;;;;;;;;;;8.50;99.90;;;;;;5008839;28;20293;-52
2021/12/14 08:07:21;;;;;;;;;;;8.50;99.90;;;;;;5009929;28;19933;-55
2021/12/14 08:09:50;;;;;;;;;;;8.50;99.90;;;;;;5008295;28;20340;-55
2021/12/14 08:12:29;;;;;;;;;;;8.50;99.90;;;;;;5009147;28;20049;-56
2021/12/14 08:15:00;;;;;;;;;;;8.50;99.90;;;;;;5025855;28;20142;-54
2021/12/14 08:17:25;;;;;;;;;;;8.40;99.90;;;;;;5009117;28;19905;-56
2021/12/14 08:19:51;;;;;;;;;;;8.40;99.90;;;;;;5029649;28;20070;-57
2021/12/14 08:22:28;;;;;;;;;;;8.50;99.90;;;;;;5010977;28;19905;-54
2021/12/14 08:24:54;;;;;;;;;;;8.50;99.90;;;;;;5010096;28;19906;-52
2021/12/14 08:27:21;;;;;;;;;;;8.50;99.90;;;;;;5010573;28;19905;-55
2021/12/14 08:29:48;;;;;;;;;;;8.50;99.90;;;;;;5026587;28;20297;-55
2021/12/14 08:32:14;;;;;;;;;;;8.50;99.90;;;;;;5009013;28;19911;-55
2021/12/14 08:34:41;;;;;;;;;;;8.50;99.90;;;;;;5007220;28;20150;-53
2021/12/14 08:37:12;;;;;;;;;;;8.50;99.90;;;;;;5008006;28;19905;-56
2021/12/14 08:39:47;;;;;;;;;;;8.50;99.90;;;;;;5009183;28;20125;-57
2021/12/14 08:42:46;;;;;;;;;;;8.50;99.90;;;;;;5009423;28;20386;-55
2021/12/14 08:45:27;;;;;;;;;;;8.60;99.90;;;;;;5026778;28;20149;-54
2021/12/14 08:48:01;;;;;;;;;;;8.60;99.90;;;;;;5008879;28;19917;-54
2021/12/14 08:50:27;;;;;;;;;;;8.50;99.90;;;;;;5011947;28;19905;-54
2021/12/14 08:52:52;;;;;;;;;;;8.50;99.90;;;;;;5011244;28;19912;-54
2021/12/14 08:55:19;;;;;;;;;;;8.50;99.90;;;;;;5009117;28;20363;-50
2021/12/14 08:57:44;;;;;;;;;;;8.50;99.90;;;;;;5009708;28;19909;-56
2021/12/14 09:00:15;;;;;;;;;;;8.40;99.90;;;;;;5010454;28;19924;-56
2021/12/14 09:02:42;;;;;;;;;;;8.50;99.90;;;;;;5011523;28;19905;-55
2021/12/14 09:05:13;;;;;;;;;;;8.40;99.90;;;;;;5011165;28;19963;-56
2021/12/14 09:07:39;;;;;;;;;;;8.40;99.90;;;;;;5012201;28;19940;-52
2021/12/14 09:10:07;;;;;;;;;;;8.40;99.90;;;;;;5009898;28;20309;-54
2021/12/14 09:12:35;;;;;;;;;;;8.40;99.90;;;;;;5008340;28;20228;-56
2021/12/14 09:15:23;;;;;;;;;;;8.40;99.90;;;;;;5007340;28;19924;-56
2021/12/14 09:17:51;;;;;;;;;;;8.30;99.90;;;;;;5009725;28;20354;-56
2021/12/14 09:20:20;;;;;;;;;;;8.40;99.90;;;;;;5013701;28;20330;-52
2021/12/14 09:22:50;;;;;;;;;;;8.40;99.90;;;;;;5030450;28;19967;-56
2021/12/14 09:25:18;;;;;;;;;;;8.40;99.90;;;;;;5012454;28;20496;-55
2021/12/14 09:27:45;;;;;;;;;;;8.40;99.90;;;;;;4995635;28;20468;-56
2021/12/14 09:30:13;;;;;;;;;;;8.40;99.90;;;;;;5030282;28;19921;-56
2021/12/14 09:32:39;;;;;;;;;;;8.40;99.90;;;;;;5031110;28;20384;-52
2021/12/14 09:35:09;;;;;;;;;;;8.40;99.90;;;;;;5028923;28;19905;-55
2021/12/14 09:37:35;;;;;;;;;;;8.30;99.90;;;;;;5030102;28;20245;-54
2021/12/14 09:40:08;;;;;;;;;;;8.40;99.90;;;;;;5013893;28;20332;-55
2021/12/14 09:42:35;;;;;;;;;;;8.40;99.90;;;;;;5013366;28;19913;-58
2021/12/14 09:45:06;;;;;;;;;;;8.50;99.90;;;;;;5016199;28;19999;-56
2021/12/14 09:47:33;;;;;;;;;;;8.70;99.90;;;;;;5015266;28;19905;-54
2021/12/14 09:50:05;;;;;;;;;;;8.60;99.90;;;;;;5014266;28;20079;-56
2021/12/14 09:52:32;;;;;;;;;;;8.60;99.90;;;;;;5014800;28;19909;-55
2021/12/14 09:55:02;;;;;;;;;;;8.60;99.90;;;;;;5015103;28;19909;-56
2021/12/14 09:57:32;;;;;;;;;;;8.60;99.90;;;;;;5001837;28;19909;-54
2021/12/14 10:00:01;;;;;;;;;;;8.50;99.90;;;;;;5016982;28;19994;-50
2021/12/14 10:02:38;;;;;;;;;;;8.50;99.90;;;;;;5018553;28;19909;-52
2021/12/14 10:05:26;;;;;;;;;;;8.50;99.90;;;;;;5015370;28;19914;-54
2021/12/14 10:07:54;;;;;;;;;;;8.60;99.90;;;;;;5016669;28;19996;-55
2021/12/14 10:10:21;;;;;;;;;;;8.60;99.90;;;;;;5016229;28;19928;-55
2021/12/14 10:12:50;;;;;;;;;;;8.50;99.90;;;;;;5017107;28;20246;-54
2021/12/14 10:15:18;;;;;;;;;;;8.50;99.90;;;;;;5015367;28;19928;-53
2021/12/14 10:17:46;;;;;;;;;;;8.50;99.90;;;;;;5015673;28;19909;-52
2021/12/14 10:20:14;;;;;;;;;;;8.60;99.90;;;;;;5014070;28;20208;-53
2021/12/14 10:22:39;;;;;;;;;;;8.50;99.90;;;;;;5013990;28;20258;-53
2021/12/14 10:25:09;;;;;;;;;;;8.50;99.90;;;;;;5014926;28;20353;-52
2021/12/14 10:27:36;;;;;;;;;;;8.50;99.90;;;;;;5015872;28;19910;-53
2021/12/14 10:30:08;;;;;;;;;;;8.60;99.90;;;;;;5013797;28;19941;-54
2021/12/14 10:32:36;;;;;;;;;;;8.60;99.90;;;;;;5012907;28;19909;-52
2021/12/14 10:35:11;;;;;;;;;;;8.60;99.90;;;;;;5012410;28;20120;-53
2021/12/14 10:38:29;;;;;;;;;;;8.50;99.90;;;;;;5007853;28;19905;-56
2021/12/14 10:43:19;;;;;;;;;;;8.50;99.90;;;;;;5013629;28;19916;-51
2021/12/14 10:46:09;;;;;;;;;;;8.50;99.90;;;;;;5019220;28;19940;-55
2021/12/14 10:48:36;;;;;;;;;;;8.60;99.90;;;;;;5033136;28;19978;-56
2021/12/14 10:51:04;;;;;;;;;;;8.50;99.90;;;;;;5027487;28;19976;-54
2021/12/14 10:53:32;;;;;;;;;;;8.60;99.90;;;;;;5010467;28;19911;-55
2021/12/14 10:55:59;;;;;;;;;;;8.60;99.90;;;;;;5011750;28;19952;-51
2021/12/14 10:58:26;;;;;;;;;;;8.60;99.90;;;;;;5011827;28;19917;-54
2021/12/14 11:00:54;;;;;;;;;;;8.60;99.90;;;;;;5010817;28;20032;-54
2021/12/14 11:03:25;;;;;;;;;;;8.60;99.90;;;;;;5030643;28;19981;-53
2021/12/14 11:05:53;;;;;;;;;;;8.60;99.90;;;;;;5069067;28;19944;-54
2021/12/14 11:08:36;;;;;;;;;;;8.60;99.90;;;;;;5064264;28;19912;-50
2021/12/14 11:11:07;;;;;;;;;;;8.60;99.90;;;;;;5068080;28;19905;-54
2021/12/14 11:13:41;;;;;;;;;;;8.60;99.90;;;;;;5065377;28;20020;-56
2021/12/14 11:16:14;;;;;;;;;;;8.60;99.90;;;;;;5066328;28;20153;-52
2021/12/14 11:18:41;;;;;;;;;;;8.50;99.90;;;;;;5064732;28;19916;-54
2021/12/14 11:21:12;;;;;;;;;;;8.60;99.90;;;;;;5058693;28;20081;-56
2021/12/14 11:23:42;;;;;;;;;;;8.60;99.90;;;;;;5043747;28;19976;-52
2021/12/14 11:26:11;;;;;;;;;;;8.60;99.90;;;;;;5042934;28;20292;-57
2021/12/14 11:28:53;;;;;;;;;;;8.60;99.90;;;;;;5047676;28;19956;-55
2021/12/14 11:31:28;;;;;;;;;;;8.60;99.90;;;;;;5046802;28;20058;-54
2021/12/14 11:33:56;;;;;;;;;;;8.60;99.90;;;;;;5047181;28;19916;-52
2021/12/14 11:36:37;;;;;;;;;;;8.60;99.90;;;;;;5051136;28;19905;-54
2021/12/14 11:39:12;;;;;;;;;;;8.60;99.90;;;;;;5049732;28;19931;-54
2021/12/14 11:41:40;;;;;;;;;;;8.60;99.90;;;;;;5048403;28;19909;-52
2021/12/14 11:44:32;;;;;;;;;;;8.60;99.90;;;;;;5047044;28;20336;-52
2021/12/14 11:47:49;;;;;;;;;;;8.60;99.90;;;;;;5048370;28;20050;-52
2021/12/14 11:50:28;;;;;;;;;;;8.60;99.90;;;;;;5052158;28;20434;-52
2021/12/14 11:53:11;;;;;;;;;;;8.60;99.90;;;;;;5051746;28;19904;-55
2021/12/14 11:55:40;;;;;;;;;;;8.60;99.90;;;;;;5050588;28;19904;-53
2021/12/14 11:58:11;;;;;;;;;;;8.60;99.90;;;;;;5051678;28;19958;-52
2021/12/14 12:00:40;;;;;;;;;;;8.60;99.90;;;;;;5053076;28;19905;-53
2021/12/14 12:03:25;;;;;;;;;;;8.70;99.90;;;;;;5064242;28;19918;-56
2021/12/14 12:06:08;;;;;;;;;;;8.70;99.90;;;;;;5094575;28;19904;-52
2021/12/14 12:11:21;;;;;;;;;;;8.70;99.90;;;;;;5096747;28;19911;-56
2021/12/14 12:13:47;;;;;;;;;;;8.70;99.90;;;;;;5095210;28;19919;-53
2021/12/14 12:16:22;;;;;;;;;;;8.70;99.90;;;;;;5093390;28;19912;-54
2021/12/14 12:19:06;;;;;;;;;;;8.70;99.90;;;;;;5092814;28;19904;-56
2021/12/14 12:21:36;;;;;;;;;;;8.70;99.90;;;;;;5092490;28;19994;-50
2021/12/14 12:24:03;;;;;;;;;;;8.70;99.90;;;;;;5073662;28;20064;-54
2021/12/14 12:26:31;;;;;;;;;;;8.70;99.90;;;;;;5087512;28;19904;-55
2021/12/14 12:29:02;;;;;;;;;;;8.70;99.90;;;;;;5070084;28;19908;-52
2021/12/14 12:31:32;;;;;;;;;;;8.70;99.90;;;;;;5069954;28;19908;-54
2021/12/14 12:33:59;;;;;;;;;;;8.70;99.90;;;;;;5069388;28;19927;-53
2021/12/14 12:36:35;;;;;;;;;;;8.70;99.90;;;;;;5068125;28;19911;-52
2021/12/14 12:39:10;;;;;;;;;;;8.80;99.90;;;;;;5068278;28;19908;-53
2021/12/14 12:41:54;;;;;;;;;;;8.80;99.90;;;;;;5070498;28;19908;-54
2021/12/14 12:44:23;;;;;;;;;;;8.80;99.90;;;;;;5054042;28;20494;-52
2021/12/14 12:46:48;;;;;;;;;;;8.80;99.90;;;;;;5070767;28;19973;-54
2021/12/14 12:49:21;;;;;;;;;;;8.90;99.90;;;;;;5071682;28;19912;-51
2021/12/14 12:52:01;;;;;;;;;;;8.90;99.90;;;;;;5079448;28;19908;-55
2021/12/14 12:54:56;;;;;;;;;;;8.90;99.90;;;;;;5090239;28;19908;-55
2021/12/14 12:57:44;;;;;;;;;;;8.90;99.90;;;;;;5051797;28;19904;-56
2021/12/14 13:00:16;;;;;;;;;;;8.90;99.90;;;;;;5071669;28;19919;-55
2021/12/14 13:03:02;;;;;;;;;;;8.90;99.90;;;;;;5074559;28;19904;-56
2021/12/14 13:05:30;;;;;;;;;;;8.90;99.90;;;;;;5074168;28;19912;-55
2021/12/14 13:07:56;;;;;;;;;;;8.90;99.90;;;;;;5072167;28;19908;-56
2021/12/14 13:10:24;;;;;;;;;;;8.90;99.90;;;;;;5089011;28;19916;-53
2021/12/14 13:12:54;;;;;;;;;;;8.90;99.90;;;;;;5088593;28;19912;-54
2021/12/14 13:15:27;;;;;;;;;;;8.90;99.90;;;;;;5069838;28;19911;-54
2021/12/14 13:18:14;;;;;;;;;;;9.00;99.90;;;;;;5066825;28;19945;-53
2021/12/14 13:20:41;;;;;;;;;;;9.00;99.90;;;;;;5067356;28;19904;-55
2021/12/14 13:23:08;;;;;;;;;;;9.00;99.90;;;;;;5069561;28;19904;-56
2021/12/14 13:25:34;;;;;;;;;;;9.00;99.90;;;;;;5085457;28;19904;-54
2021/12/14 13:28:00;;;;;;;;;;;9.00;99.90;;;;;;5065911;28;19915;-55
2021/12/14 13:30:30;;;;;;;;;;;9.00;99.90;;;;;;5068835;28;19911;-52
2021/12/14 13:32:56;;;;;;;;;;;9.00;99.90;;;;;;5070514;28;19908;-56
2021/12/14 13:35:28;;;;;;;;;;;9.00;99.90;;;;;;5054288;28;19923;-56
2021/12/14 13:37:56;;;;;;;;;;;9.00;99.90;;;;;;5055419;28;19931;-56
2021/12/14 13:40:23;;;;;;;;;;;9.00;99.90;;;;;;5064396;28;19912;-53
2021/12/14 13:43:07;;;;;;;;;;;9.00;99.90;;;;;;5082028;28;20480;-55
2021/12/14 13:45:35;;;;;;;;;;;9.00;99.90;;;;;;5064652;28;19916;-54
2021/12/14 13:48:02;;;;;;;;;;;9.00;99.90;;;;;;5063896;28;19903;-54
2021/12/14 13:50:29;;;;;;;;;;;9.10;99.90;;;;;;5063073;28;19947;-55
2021/12/14 13:52:55;;;;;;;;;;;9.10;99.90;;;;;;5066988;28;19966;-55
2021/12/14 13:55:40;;;;;;;;;;;9.10;99.90;;;;;;5065541;28;19920;-52
2021/12/14 13:58:08;;;;;;;;;;;9.10;99.90;;;;;;5067948;28;19935;-56
2021/12/14 14:00:39;;;;;;;;;;;9.10;99.90;;;;;;5068289;28;19924;-56
2021/12/14 14:03:04;;;;;;;;;;;9.10;99.90;;;;;;5067618;28;19916;-54
2021/12/14 14:05:30;;;;;;;;;;;9.10;99.90;;;;;;5068135;28;20400;-55
2021/12/14 14:08:02;;;;;;;;;;;9.10;99.90;;;;;;5067334;28;19920;-56
2021/12/14 14:10:28;;;;;;;;;;;9.10;99.90;;;;;;5066517;28;20109;-56
2021/12/14 14:12:57;;;;;;;;;;;9.10;99.90;;;;;;5083686;28;20010;-56
2021/12/14 14:15:24;;;;;;;;;;;9.10;99.90;;;;;;5066243;28;20493;-55
2021/12/14 14:17:52;;;;;;;;;;;9.10;99.90;;;;;;5065859;28;19969;-55
2021/12/14 14:20:21;;;;;;;;;;;9.10;99.90;;;;;;5084013;28;19904;-57
2021/12/14 14:22:46;;;;;;;;;;;9.10;99.90;;;;;;5064248;28;20280;-56
2021/12/14 14:25:17;;;;;;;;;;;9.10;99.90;;;;;;5084587;28;20055;-54
2021/12/14 14:27:45;;;;;;;;;;;9.10;99.90;;;;;;5068624;28;19912;-56
2021/12/14 14:30:29;;;;;;;;;;;9.10;99.90;;;;;;5067053;28;19908;-54
2021/12/14 14:33:26;;;;;;;;;;;9.10;99.90;;;;;;5068392;28;19954;-56
2021/12/14 14:36:09;;;;;;;;;;;9.10;99.90;;;;;;5091828;28;19907;-56
2021/12/14 14:38:40;;;;;;;;;;;9.10;99.90;;;;;;5073618;28;19911;-53
2021/12/14 14:41:14;;;;;;;;;;;9.10;99.90;;;;;;5090018;28;20050;-57
2021/12/14 14:43:59;;;;;;;;;;;9.10;99.90;;;;;;5072432;28;19911;-56
2021/12/14 14:46:37;;;;;;;;;;;9.10;99.90;;;;;;5070303;28;19919;-54
2021/12/14 14:49:14;;;;;;;;;;;9.10;99.90;;;;;;5088519;28;19908;-57
2021/12/14 14:51:49;;;;;;;;;;;9.10;99.90;;;;;;5070615;28;20328;-56
2021/12/14 14:54:33;;;;;;;;;;;9.10;99.90;;;;;;5067377;28;19904;-55
2021/12/14 14:57:10;;;;;;;;;;;9.10;99.90;;;;;;5085563;28;19904;-56
2021/12/14 14:59:42;;;;;;;;;;;9.10;99.90;;;;;;5067478;28;19915;-55
2021/12/14 15:02:09;;;;;;;;;;;9.10;99.90;;;;;;5066652;28;20188;-57
2021/12/14 15:04:53;;;;;;;;;;;9.10;99.90;;;;;;5083716;28;20358;-55
2021/12/14 15:07:20;;;;;;;;;;;9.10;99.90;;;;;;5082892;28;20002;-57
2021/12/14 15:09:47;;;;;;;;;;;9.10;99.90;;;;;;5066500;28;20300;-56
2021/12/14 15:12:18;;;;;;;;;;;9.10;99.90;;;;;;5068457;28;19904;-56
2021/12/14 15:14:44;;;;;;;;;;;9.10;99.90;;;;;;5070152;28;20006;-54
2021/12/14 15:17:19;;;;;;;;;;;9.10;99.90;;;;;;5069927;28;19912;-56
2021/12/14 15:19:47;;;;;;;;;;;9.10;99.90;;;;;;5072004;28;19912;-57
2021/12/14 15:22:26;;;;;;;;;;;9.20;99.90;;;;;;5069603;28;20222;-56
2021/12/14 15:24:56;;;;;;;;;;;9.10;99.90;;;;;;5089051;28;19912;-54